Time;durP1;ratioP1;P1;durP2;ratioP2;P2;SDS_P1;SDS_P2;PMS_P1;PMS_P2;Temp;Humidity;BMP_temperature;BMP_pressure;BME280_temperature;BME280_humidity;BME280_pressure;Samples;Min_cycle;Max_cycle;Signal;HPM_P1;HPM_P2
2024/01/20 00:01:08;;;;;;;5.40;3.70;;;;;;;1.16;81.93;100969.16;109096;1255;59375;-70
2024/01/20 00:03:50;;;;;;;4.40;3.10;;;;;;;1.18;81.87;100969.77;108894;1254;138185;-71
2024/01/20 00:06:16;;;;;;;6.30;3.70;;;;;;;1.20;81.98;100972.80;105030;1257;64822;-70
2024/01/20 00:08:43;;;;;;;5.60;3.20;;;;;;;1.20;81.86;100972.14;104982;1261;72587;-70
2024/01/20 00:11:10;;;;;;;5.40;3.20;;;;;;;1.16;81.89;100970.02;105028;1254;138261;-70
2024/01/20 00:13:36;;;;;;;4.50;2.90;;;;;;;1.14;81.85;100969.51;105017;1258;61264;-70
2024/01/20 00:16:04;;;;;;;7.60;2.90;;;;;;;1.08;81.63;100969.29;104859;1258;138642;-69
2024/01/20 00:18:30;;;;;;;4.20;2.80;;;;;;;0.99;81.51;100969.73;105102;1258;66930;-70
2024/01/20 00:20:57;;;;;;;7.60;3.30;;;;;;;0.94;81.58;100968.68;105164;1254;73222;-69
2024/01/20 00:23:24;;;;;;;5.70;3.40;;;;;;;0.87;81.56;100964.77;104991;1255;61358;-69
2024/01/20 00:25:50;;;;;;;7.40;3.20;;;;;;;0.83;81.65;100966.55;105098;1260;61337;-70
2024/01/20 00:28:18;;;;;;;6.30;3.50;;;;;;;0.81;81.96;100959.36;104859;1254;138203;-69
2024/01/20 00:30:44;;;;;;;6.40;3.60;;;;;;;0.81;82.03;100960.54;105047;1259;66849;-72
2024/01/20 00:33:11;;;;;;;7.40;3.30;;;;;;;0.80;82.05;100958.61;105012;1260;138480;-70
2024/01/20 00:35:42;;;;;;;5.40;3.10;;;;;;;0.80;82.08;100958.92;105147;1260;61271;-70
2024/01/20 00:38:09;;;;;;;5.70;3.50;;;;;;;0.79;82.06;100955.92;105209;1254;61333;-69
2024/01/20 00:40:35;;;;;;;11.40;4.60;;;;;;;0.82;82.17;100954.73;104881;1254;138507;-68
2024/01/20 00:43:02;;;;;;;10.60;5.50;;;;;;;0.84;82.13;100952.13;105081;1254;65427;-69
2024/01/20 00:45:29;;;;;;;9.10;5.20;;;;;;;0.87;82.45;100949.70;104755;1257;138910;-69
2024/01/20 00:47:55;;;;;;;12.30;4.90;;;;;;;0.90;82.34;100945.44;104952;1254;61257;-69
2024/01/20 00:50:23;;;;;;;10.00;4.70;;;;;;;0.92;82.24;100946.08;105046;1254;62265;-69
2024/01/20 00:52:49;;;;;;;9.10;4.10;;;;;;;0.92;82.37;100943.53;108989;1256;138471;-69
2024/01/20 00:55:17;;;;;;;7.20;2.90;;;;;;;0.96;82.46;100945.66;109049;1254;65769;-68
2024/01/20 00:57:44;;;;;;;5.30;2.90;;;;;;;1.00;82.35;100942.13;109041;1254;138354;-69
2024/01/20 01:00:11;;;;;;;4.20;2.60;;;;;;;1.04;82.36;100943.98;109079;1254;59059;-69
2024/01/20 01:02:38;;;;;;;3.30;2.00;;;;;;;1.07;82.47;100945.89;109105;1255;60366;-69
2024/01/20 01:05:05;;;;;;;3.80;2.30;;;;;;;1.12;82.55;100952.94;108987;1256;138132;-69
2024/01/20 01:07:32;;;;;;;4.90;2.40;;;;;;;1.18;82.36;100947.95;107967;1255;66482;-70
2024/01/20 01:09:59;;;;;;;3.30;2.80;;;;;;;1.24;82.48;100949.44;108977;1254;138046;-69
2024/01/20 01:12:27;;;;;;;4.00;2.20;;;;;;;1.30;82.55;100944.48;108866;1254;59572;-69
2024/01/20 01:14:54;;;;;;;6.10;2.20;;;;;;;1.35;82.56;100945.33;109099;1254;59543;-70
2024/01/20 01:17:21;;;;;;;4.20;2.10;;;;;;;1.39;82.61;100939.00;106346;1259;138818;-70
2024/01/20 01:19:48;;;;;;;3.60;2.10;;;;;;;1.44;82.68;100939.30;104952;1258;66415;-70
2024/01/20 01:22:15;;;;;;;3.00;2.10;;;;;;;1.48;82.68;100938.02;104767;1256;138634;-70
2024/01/20 01:24:41;;;;;;;2.80;1.90;;;;;;;1.51;82.53;100933.54;104725;1260;61368;-70
2024/01/20 01:27:08;;;;;;;2.90;2.10;;;;;;;1.54;82.59;100935.41;104905;1256;139065;-69
2024/01/20 01:29:35;;;;;;;2.50;2.10;;;;;;;1.56;82.64;100937.65;104978;1254;75328;-70
2024/01/20 01:32:02;;;;;;;3.30;2.00;;;;;;;1.56;82.64;100935.91;104752;1256;65860;-69
2024/01/20 01:34:28;;;;;;;2.60;2.00;;;;;;;1.55;82.64;100932.05;104748;1260;138031;-69
2024/01/20 01:36:55;;;;;;;3.20;2.30;;;;;;;1.54;82.86;100930.83;105042;1254;61256;-69
2024/01/20 01:39:22;;;;;;;4.20;2.40;;;;;;;1.57;82.60;100921.78;104970;1259;137796;-70
2024/01/20 01:41:49;;;;;;;4.80;2.40;;;;;;;1.59;82.71;100921.55;106314;1254;75230;-70
2024/01/20 01:44:15;;;;;;;2.70;2.10;;;;;;;1.60;82.95;100916.63;104916;1260;66869;-70
2024/01/20 01:46:42;;;;;;;4.80;2.40;;;;;;;1.60;82.66;100911.95;104737;1254;138590;-70
2024/01/20 01:49:09;;;;;;;4.20;2.50;;;;;;;1.59;82.85;100909.28;105093;1261;60558;-69
2024/01/20 01:51:35;;;;;;;3.40;1.90;;;;;;;1.58;82.87;100909.05;104670;1260;139005;-70
2024/01/20 01:54:03;;;;;;;2.70;2.00;;;;;;;1.57;82.93;100907.94;108963;1256;75050;-69
2024/01/20 01:56:29;;;;;;;63.90;24.80;;;;;;;1.57;82.90;100906.91;108942;1256;64671;-68
2024/01/20 01:58:56;;;;;;;17.60;10.80;;;;;;;1.59;82.86;100902.01;108758;1257;138774;-69
2024/01/20 02:01:23;;;;;;;29.10;15.30;;;;;;;1.61;83.01;100901.11;108977;1259;59281;-68
2024/01/20 02:03:50;;;;;;;52.30;28.20;;;;;;;1.65;83.03;100903.77;108788;1256;138728;-70
2024/01/20 02:06:17;;;;;;;20.90;12.60;;;;;;;1.69;83.00;100900.41;108902;1256;75723;-69
2024/01/20 02:08:43;;;;;;;18.70;10.50;;;;;;;1.72;82.98;100891.06;109058;1256;65569;-69
2024/01/20 02:11:10;;;;;;;17.20;10.20;;;;;;;1.77;82.88;100888.25;109046;1256;138831;-69
2024/01/20 02:13:36;;;;;;;19.60;11.70;;;;;;;1.79;82.80;100884.91;108928;1254;58912;-69
2024/01/20 02:16:03;;;;;;;16.00;9.60;;;;;;;1.81;82.81;100887.14;109018;1254;139469;-68
2024/01/20 02:18:30;;;;;;;16.00;9.60;;;;;;;1.83;82.92;100888.45;108961;1256;72979;-69
2024/01/20 02:20:57;;;;;;;14.90;7.90;;;;;;;1.86;82.79;100884.31;109091;1256;67664;-69
2024/01/20 02:23:24;;;;;;;18.60;9.70;;;;;;;1.88;82.89;100886.04;109058;1256;72440;-69
2024/01/20 02:25:50;;;;;;;14.00;7.90;;;;;;;1.90;82.73;100882.86;109077;1256;59841;-70
2024/01/20 02:28:17;;;;;;;11.40;6.60;;;;;;;1.93;82.82;100884.29;109037;1256;138874;-68
2024/01/20 02:30:45;;;;;;;5.90;4.10;;;;;;;1.94;82.74;100885.38;109128;1254;74634;-69
2024/01/20 02:33:12;;;;;;;11.50;6.10;;;;;;;1.95;82.59;100885.77;109011;1255;138933;-68
2024/01/20 02:35:38;;;;;;;12.40;7.60;;;;;;;1.95;82.68;100888.52;108951;1255;74367;-69
2024/01/20 02:38:05;;;;;;;8.10;5.40;;;;;;;1.96;82.80;100885.61;108945;1255;59158;-69
2024/01/20 02:40:32;;;;;;;23.30;13.30;;;;;;;1.97;82.63;100887.27;108844;1256;139591;-60
2024/01/20 02:42:59;;;;;;;15.10;8.90;;;;;;;1.97;82.67;100886.05;109192;1254;73861;-60
2024/01/20 02:45:25;;;;;;;18.10;9.80;;;;;;;2.01;82.68;100887.65;109045;1254;138494;-59
2024/01/20 02:47:54;;;;;;;12.60;7.60;;;;;;;2.01;82.56;100883.86;109083;1254;71031;-60
2024/01/20 02:50:21;;;;;;;14.60;7.30;;;;;;;2.00;82.63;100878.29;109122;1256;60112;-60
2024/01/20 02:52:47;;;;;;;14.80;8.00;;;;;;;1.98;82.61;100871.55;108999;1254;138440;-60
2024/01/20 02:55:14;;;;;;;18.00;7.70;;;;;;;1.94;82.55;100865.64;109201;1254;74043;-60
2024/01/20 02:57:41;;;;;;;13.30;7.70;;;;;;;1.93;82.64;100861.05;109073;1254;138485;-60
2024/01/20 03:00:08;;;;;;;14.20;7.20;;;;;;;1.92;82.61;100856.15;108901;1254;72146;-59
2024/01/20 03:02:35;;;;;;;12.40;6.50;;;;;;;1.90;82.66;100853.09;108914;1256;59263;-59
2024/01/20 03:05:02;;;;;;;14.40;6.20;;;;;;;1.87;82.53;100844.58;108931;1254;138427;-67
2024/01/20 03:07:28;;;;;;;14.90;5.90;;;;;;;1.83;82.57;100843.16;109120;1256;73331;-69
2024/01/20 03:09:55;;;;;;;54.80;17.90;;;;;;;1.82;82.55;100841.36;109073;1254;138420;-69
2024/01/20 03:12:22;;;;;;;59.90;18.40;;;;;;;1.82;82.71;100835.60;109177;1254;70724;-70
2024/01/20 03:14:49;;;;;;;96.90;30.40;;;;;;;1.80;82.77;100829.13;108576;1259;61353;-70
2024/01/20 03:17:16;;;;;;;27.40;15.70;;;;;;;1.81;82.78;100826.59;104742;1257;138157;-71
2024/01/20 03:19:42;;;;;;;9.40;7.30;;;;;;;1.83;82.95;100829.29;104916;1257;75168;-70
2024/01/20 03:22:09;;;;;;;10.20;8.00;;;;;;;1.82;82.91;100826.46;104845;1257;138590;-70
2024/01/20 03:24:36;;;;;;;13.60;9.90;;;;;;;1.84;82.92;100829.86;105009;1257;73578;-60
2024/01/20 03:27:03;;;;;;;5.20;4.70;;;;;;;1.85;83.04;100827.19;104959;1257;139211;-67
2024/01/20 03:29:29;;;;;;;3.80;3.40;;;;;;;1.87;83.16;100822.77;109124;1257;60371;-59
2024/01/20 03:31:56;;;;;;;4.40;3.80;;;;;;;1.87;83.15;100818.12;109138;1256;74642;-62
2024/01/20 03:34:23;;;;;;;64.60;41.60;;;;;;;1.89;83.08;100817.38;109028;1255;138167;-59
2024/01/20 03:36:49;;;;;;;49.10;31.40;;;;;;;1.89;83.10;100815.66;109111;1254;73601;-59
2024/01/20 03:39:16;;;;;;;31.40;21.10;;;;;;;1.92;83.13;100813.08;109025;1254;138978;-70
2024/01/20 03:41:43;;;;;;;12.40;9.10;;;;;;;1.93;83.05;100807.11;109224;1254;59532;-69
2024/01/20 03:44:10;;;;;;;9.70;6.90;;;;;;;1.93;83.04;100805.89;109136;1255;75487;-60
2024/01/20 03:46:37;;;;;;;8.30;6.30;;;;;;;1.93;83.00;100800.36;106489;1258;138346;-70
2024/01/20 03:49:03;;;;;;;12.60;8.90;;;;;;;1.95;83.07;100796.79;105148;1259;71757;-69
2024/01/20 03:51:30;;;;;;;6.10;4.90;;;;;;;1.98;83.11;100795.04;104903;1259;138646;-69
2024/01/20 03:53:56;;;;;;;4.70;2.50;;;;;;;1.99;83.08;100790.61;105044;1254;61250;-69
2024/01/20 03:56:23;;;;;;;3.20;2.30;;;;;;;1.98;83.17;100783.98;104958;1259;75668;-68
2024/01/20 03:58:50;;;;;;;2.10;1.70;;;;;;;1.98;83.28;100781.40;104813;1261;138811;-69
2024/01/20 04:01:16;;;;;;;3.60;2.10;;;;;;;1.98;83.30;100774.81;104956;1258;70860;-59
2024/01/20 04:03:43;;;;;;;4.80;2.70;;;;;;;2.00;83.44;100769.21;104760;1257;139246;-61
2024/01/20 04:06:10;;;;;;;5.00;2.60;;;;;;;2.03;83.47;100767.48;104856;1259;61276;-61
2024/01/20 04:08:37;;;;;;;6.30;3.30;;;;;;;2.06;83.65;100771.31;105147;1259;75038;-59
2024/01/20 04:11:03;;;;;;;9.70;3.80;;;;;;;2.07;83.60;100766.02;105030;1254;138518;-59
2024/01/20 04:13:30;;;;;;;6.20;3.40;;;;;;;2.08;83.38;100765.38;105097;1259;72651;-60
2024/01/20 04:15:56;;;;;;;8.80;4.00;;;;;;;2.09;83.49;100770.48;104947;1254;138419;-69
2024/01/20 04:18:23;;;;;;;10.60;3.70;;;;;;;2.12;83.55;100774.93;104879;1261;61214;-61
2024/01/20 04:20:50;;;;;;;15.80;5.10;;;;;;;2.16;83.64;100775.20;104884;1260;75304;-61
2024/01/20 04:23:17;;;;;;;8.00;3.80;;;;;;;2.20;83.69;100778.73;104624;1256;138380;-59
2024/01/20 04:25:44;;;;;;;11.30;6.10;;;;;;;2.25;83.61;100773.80;105043;1254;72275;-59
2024/01/20 04:28:11;;;;;;;9.10;3.80;;;;;;;2.28;83.53;100772.28;104984;1257;138427;-60
2024/01/20 04:30:38;;;;;;;10.30;4.60;;;;;;;2.30;83.53;100773.45;104995;1259;61267;-60
2024/01/20 04:33:05;;;;;;;12.10;5.40;;;;;;;2.31;83.34;100776.59;104951;1254;139170;-60
2024/01/20 04:35:32;;;;;;;14.20;4.50;;;;;;;2.27;83.33;100777.40;105068;1255;64298;-71
2024/01/20 04:37:59;;;;;;;8.80;4.60;;;;;;;2.23;83.23;100775.09;105047;1257;72946;-69
2024/01/20 04:40:25;;;;;;;12.20;5.50;;;;;;;2.21;83.27;100773.09;104896;1256;138913;-70
2024/01/20 04:42:52;;;;;;;12.50;5.00;;;;;;;2.19;83.14;100767.94;105017;1259;61270;-70
2024/01/20 04:45:19;;;;;;;12.10;4.20;;;;;;;2.16;83.16;100765.86;104896;1256;140122;-69
2024/01/20 04:47:46;;;;;;;11.00;3.60;;;;;;;2.12;83.02;100769.41;105050;1255;67549;-71
2024/01/20 04:50:13;;;;;;;9.30;3.90;;;;;;;2.09;83.23;100772.23;104833;1257;73112;-70
2024/01/20 04:52:40;;;;;;;12.70;4.30;;;;;;;2.09;83.12;100771.84;104838;1256;139749;-70
2024/01/20 04:55:07;;;;;;;10.20;4.40;;;;;;;2.08;83.19;100767.80;104957;1257;61210;-69
2024/01/20 04:57:34;;;;;;;11.40;3.40;;;;;;;2.08;83.35;100760.92;108799;1260;139467;-68
2024/01/20 05:00:00;;;;;;;9.30;3.80;;;;;;;2.11;83.45;100757.78;109178;1254;65269;-70
2024/01/20 05:02:27;;;;;;;9.40;3.60;;;;;;;2.12;83.38;100757.69;109211;1254;72511;-69
2024/01/20 05:04:54;;;;;;;6.90;3.20;;;;;;;2.17;83.50;100760.22;109038;1256;140105;-70
2024/01/20 05:07:20;;;;;;;9.90;3.70;;;;;;;2.21;83.40;100753.67;109201;1254;59127;-69
2024/01/20 05:09:47;;;;;;;6.60;3.30;;;;;;;2.22;83.35;100758.77;108958;1254;139749;-70
2024/01/20 05:12:14;;;;;;;10.90;3.70;;;;;;;2.23;83.19;100758.27;109141;1254;68050;-70
2024/01/20 05:14:40;;;;;;;9.40;3.90;;;;;;;2.23;83.12;100760.02;109192;1254;70551;-69
2024/01/20 05:17:07;;;;;;;7.80;3.50;;;;;;;2.25;83.34;100757.92;109043;1254;138763;-69
2024/01/20 05:19:37;;;;;;;8.50;3.30;;;;;;;2.25;83.19;100754.60;109166;1254;60212;-70
2024/01/20 05:22:04;;;;;;;8.80;3.70;;;;;;;2.23;83.10;100757.27;109077;1254;138529;-69
2024/01/20 05:24:31;;;;;;;11.10;3.30;;;;;;;2.23;83.09;100753.13;109198;1254;66695;-60
2024/01/20 05:26:58;;;;;;;9.00;3.30;;;;;;;2.24;83.14;100758.55;109090;1255;138974;-60
2024/01/20 05:29:25;;;;;;;6.30;2.70;;;;;;;2.24;83.05;100758.90;108012;1260;61422;-60
2024/01/20 05:31:51;;;;;;;9.00;3.20;;;;;;;2.23;83.00;100753.61;104769;1261;61285;-59
2024/01/20 05:34:18;;;;;;;8.20;3.20;;;;;;;2.21;83.01;100749.52;104845;1257;138517;-61
2024/01/20 05:36:45;;;;;;;9.10;3.70;;;;;;;2.19;83.05;100752.70;104951;1259;66551;-60
2024/01/20 05:39:11;;;;;;;10.80;4.00;;;;;;;2.16;83.01;100756.83;104804;1256;139466;-62
2024/01/20 05:41:38;;;;;;;10.20;3.90;;;;;;;2.14;83.10;100753.30;105048;1257;61381;-61
2024/01/20 05:44:05;;;;;;;7.80;3.40;;;;;;;2.12;83.29;100756.45;104977;1254;61261;-61
2024/01/20 05:46:32;;;;;;;6.00;3.10;;;;;;;2.10;83.36;100753.07;108956;1254;138341;-62
2024/01/20 05:48:59;;;;;;;8.10;3.10;;;;;;;2.09;83.24;100759.89;108961;1255;64955;-62
2024/01/20 05:51:26;;;;;;;7.90;3.40;;;;;;;2.08;83.37;100764.52;108968;1256;138819;-62
2024/01/20 05:53:52;;;;;;;4.50;3.00;;;;;;;2.07;83.37;100769.48;107917;1257;61405;-61
2024/01/20 05:56:21;;;;;;;5.00;2.70;;;;;;;2.07;83.29;100763.41;104652;1259;61417;-61
2024/01/20 05:58:48;;;;;;;6.50;2.50;;;;;;;2.04;83.34;100760.49;104738;1256;138099;-61
2024/01/20 06:01:16;;;;;;;7.00;3.10;;;;;;;2.03;83.41;100758.20;104970;1254;64842;-62
2024/01/20 06:03:43;;;;;;;6.50;2.90;;;;;;;2.03;83.39;100763.02;104773;1259;138545;-60
2024/01/20 06:06:10;;;;;;;6.50;3.20;;;;;;;2.02;83.43;100766.79;104948;1259;61132;-60
2024/01/20 06:08:36;;;;;;;9.30;3.20;;;;;;;2.01;83.52;100768.95;104735;1260;61250;-61
2024/01/20 06:11:03;;;;;;;5.40;3.30;;;;;;;2.02;83.58;100770.02;104829;1259;138416;-62
2024/01/20 06:13:30;;;;;;;5.80;3.30;;;;;;;2.02;83.65;100769.85;105053;1257;64792;-61
2024/01/20 06:15:57;;;;;;;5.90;3.40;;;;;;;2.02;83.68;100766.92;104842;1258;138389;-61
2024/01/20 06:18:23;;;;;;;6.60;3.20;;;;;;;2.06;83.72;100771.15;104879;1259;61324;-61
2024/01/20 06:20:50;;;;;;;6.30;2.90;;;;;;;2.08;83.71;100769.52;104755;1262;61405;-62
2024/01/20 06:23:17;;;;;;;9.00;3.10;;;;;;;2.09;83.72;100767.71;104882;1254;138383;-62
2024/01/20 06:25:43;;;;;;;4.10;2.80;;;;;;;2.11;83.78;100766.45;104793;1258;66617;-62
2024/01/20 06:28:10;;;;;;;4.80;2.70;;;;;;;2.14;83.85;100768.38;104778;1255;138398;-62
2024/01/20 06:30:37;;;;;;;4.30;3.00;;;;;;;2.17;83.72;100770.21;104838;1259;61275;-62
2024/01/20 06:33:04;;;;;;;5.20;2.80;;;;;;;2.17;83.54;100765.20;104786;1256;138433;-62
2024/01/20 06:35:31;;;;;;;5.50;3.20;;;;;;;2.18;83.82;100762.48;109120;1254;74179;-62
2024/01/20 06:37:58;;;;;;;5.10;2.90;;;;;;;2.20;83.86;100764.34;107056;1257;67094;-62
2024/01/20 06:40:24;;;;;;;6.10;2.70;;;;;;;2.25;83.83;100762.42;104828;1255;138715;-61
2024/01/20 06:42:51;;;;;;;6.30;3.00;;;;;;;2.29;83.70;100765.23;104976;1254;61368;-61
2024/01/20 06:45:18;;;;;;;4.50;2.70;;;;;;;2.30;83.63;100773.59;105035;1259;138483;-61
2024/01/20 06:47:44;;;;;;;4.40;3.00;;;;;;;2.31;83.67;100774.88;105040;1259;74786;-61
2024/01/20 06:50:12;;;;;;;6.30;3.20;;;;;;;2.33;83.66;100779.48;104789;1258;67478;-62
2024/01/20 06:52:39;;;;;;;4.30;2.60;;;;;;;2.37;83.72;100779.90;109059;1256;138433;-62
2024/01/20 06:55:06;;;;;;;9.60;2.50;;;;;;;2.39;83.69;100781.19;109191;1254;59791;-61
2024/01/20 06:57:32;;;;;;;5.40;2.50;;;;;;;2.39;83.49;100773.94;109080;1254;138455;-60
2024/01/20 06:59:59;;;;;;;5.90;2.90;;;;;;;2.42;83.64;100776.52;109177;1254;73909;-60
2024/01/20 07:02:27;;;;;;;6.40;3.10;;;;;;;2.45;83.47;100774.84;109176;1255;66969;-60
2024/01/20 07:04:53;;;;;;;6.60;3.10;;;;;;;2.47;83.44;100774.77;109070;1254;138428;-60
2024/01/20 07:07:20;;;;;;;6.30;3.10;;;;;;;2.48;83.35;100779.17;109212;1254;59282;-60
2024/01/20 07:09:47;;;;;;;5.60;2.90;;;;;;;2.48;83.34;100784.16;109010;1254;138482;-70
2024/01/20 07:12:14;;;;;;;9.60;3.40;;;;;;;2.46;83.26;100785.58;109169;1256;75300;-71
2024/01/20 07:14:43;;;;;;;11.50;3.50;;;;;;;2.44;83.27;100784.77;109163;1259;65609;-71
2024/01/20 07:17:09;;;;;;;9.30;3.90;;;;;;;2.41;83.32;100784.81;108997;1256;139146;-71
2024/01/20 07:19:36;;;;;;;6.00;2.90;;;;;;;2.38;83.20;100783.23;109116;1255;59047;-62
2024/01/20 07:22:03;;;;;;;4.50;2.90;;;;;;;2.36;83.22;100785.20;108870;1254;138600;-72
2024/01/20 07:24:30;;;;;;;7.00;3.30;;;;;;;2.38;83.28;100786.16;109176;1254;74861;-70
2024/01/20 07:26:56;;;;;;;8.20;3.30;;;;;;;2.40;83.30;100787.17;106105;1256;66851;-65
2024/01/20 07:29:24;;;;;;;12.50;5.50;;;;;;;2.42;83.36;100795.78;105115;1257;74672;-64
2024/01/20 07:31:50;;;;;;;8.10;4.00;;;;;;;2.46;83.53;100790.28;104995;1258;61234;-66
2024/01/20 07:34:17;;;;;;;6.20;3.40;;;;;;;2.55;83.76;100787.35;104631;1256;138980;-70
2024/01/20 07:36:44;;;;;;;17.70;10.00;;;;;;;2.64;83.77;100785.98;104981;1255;74693;-59
2024/01/20 07:39:11;;;;;;;7.90;5.20;;;;;;;2.69;83.67;100783.98;104993;1259;139070;-61
2024/01/20 07:41:38;;;;;;;13.00;8.60;;;;;;;2.75;83.46;100790.23;104870;1259;73318;-59
2024/01/20 07:44:04;;;;;;;11.00;7.20;;;;;;;2.83;83.65;100787.23;104721;1259;61271;-59
2024/01/20 07:46:31;;;;;;;14.00;9.40;;;;;;;2.94;83.59;100783.80;104877;1258;139084;-60
2024/01/20 07:48:57;;;;;;;14.10;6.70;;;;;;;3.01;83.47;100786.98;104870;1256;74728;-60
2024/01/20 07:51:24;;;;;;;9.90;5.30;;;;;;;3.08;83.39;100788.61;104670;1256;138877;-60
2024/01/20 07:53:51;;;;;;;9.50;5.00;;;;;;;3.12;83.29;100784.85;104700;1258;71447;-61
2024/01/20 07:56:17;;;;;;;11.20;6.10;;;;;;;3.17;83.07;100790.48;104887;1258;61366;-61
2024/01/20 07:58:44;;;;;;;12.30;5.80;;;;;;;3.24;83.11;100796.04;104893;1259;138374;-60
2024/01/20 08:01:11;;;;;;;11.40;5.80;;;;;;;3.28;82.81;100794.36;104949;1259;74966;-60
2024/01/20 08:03:37;;;;;;;12.60;8.40;;;;;;;3.30;82.88;100793.10;104753;1259;139381;-70
2024/01/20 08:06:07;;;;;;;19.10;10.80;;;;;;;3.31;82.63;100795.09;104821;1259;71467;-69
2024/01/20 08:08:33;;;;;;;17.10;11.60;;;;;;;3.34;82.67;100798.50;104899;1257;61298;-69
2024/01/20 08:11:00;;;;;;;7.00;4.00;;;;;;;3.40;82.69;100809.92;104872;1259;138451;-69
2024/01/20 08:13:27;;;;;;;5.50;3.50;;;;;;;3.44;82.53;100818.15;104913;1255;75868;-69
2024/01/20 08:15:54;;;;;;;8.60;4.20;;;;;;;3.48;82.35;100825.11;104730;1257;138796;-70
2024/01/20 08:18:21;;;;;;;5.50;3.00;;;;;;;3.46;82.19;100829.04;104808;1256;72821;-69
2024/01/20 08:20:47;;;;;;;5.00;2.80;;;;;;;3.44;82.17;100822.81;104813;1257;60082;-70
2024/01/20 08:23:14;;;;;;;8.40;4.40;;;;;;;3.39;82.03;100829.64;104769;1256;138314;-70
2024/01/20 08:25:41;;;;;;;5.60;3.60;;;;;;;3.35;82.01;100819.41;104896;1256;75679;-70
2024/01/20 08:28:08;;;;;;;6.70;3.80;;;;;;;3.33;82.08;100822.22;104828;1255;138869;-70
2024/01/20 08:30:34;;;;;;;10.30;5.70;;;;;;;3.36;82.21;100820.83;104973;1254;73640;-70
2024/01/20 08:33:01;;;;;;;6.50;4.00;;;;;;;3.42;82.20;100818.20;104679;1258;138504;-68
2024/01/20 08:35:28;;;;;;;6.90;4.70;;;;;;;3.45;82.11;100817.68;105027;1258;61176;-70
2024/01/20 08:37:54;;;;;;;8.00;5.10;;;;;;;3.49;82.05;100821.89;105107;1259;74463;-69
2024/01/20 08:40:21;;;;;;;11.00;4.60;;;;;;;3.54;82.05;100818.48;104853;1255;138489;-70
2024/01/20 08:42:48;;;;;;;6.40;4.00;;;;;;;3.63;81.97;100819.67;104994;1258;73481;-70
2024/01/20 08:45:14;;;;;;;7.50;4.40;;;;;;;3.80;82.09;100821.46;104693;1256;137939;-68
2024/01/20 08:47:41;;;;;;;7.90;3.80;;;;;;;4.06;82.23;100830.30;104894;1255;61273;-69
2024/01/20 08:50:08;;;;;;;6.70;3.80;;;;;;;4.41;82.35;100840.80;104890;1255;73835;-70
2024/01/20 08:52:35;;;;;;;6.20;3.40;;;;;;;4.73;82.07;100846.77;108960;1254;138395;-70
2024/01/20 08:55:02;;;;;;;9.50;7.20;;;;;;;4.72;80.99;100852.24;109103;1254;73880;-70
2024/01/20 08:57:31;;;;;;;13.60;9.20;;;;;;;4.52;80.56;100845.14;108830;1256;139962;-70
2024/01/20 08:59:58;;;;;;;18.40;12.70;;;;;;;4.31;80.19;100839.39;109126;1256;59404;-70
2024/01/20 09:02:26;;;;;;;32.30;22.40;;;;;;;4.16;80.19;100840.55;109137;1255;72745;-70
2024/01/20 09:04:52;;;;;;;31.00;20.10;;;;;;;4.08;80.42;100835.81;109020;1256;138556;-70
2024/01/20 09:07:20;;;;;;;26.10;15.80;;;;;;;4.03;80.27;100844.02;109192;1254;73753;-70
2024/01/20 09:09:47;;;;;;;85.00;46.40;;;;;;;3.96;80.35;100841.59;109029;1256;138167;-69
2024/01/20 09:12:14;;;;;;;42.70;24.40;;;;;;;3.90;80.34;100846.99;108956;1255;59980;-61
2024/01/20 09:14:41;;;;;;;22.80;14.40;;;;;;;3.84;80.36;100844.07;108977;1254;74374;-61
2024/01/20 09:17:08;;;;;;;60.40;33.30;;;;;;;3.76;80.30;100852.70;109053;1254;138710;-70
2024/01/20 09:19:34;;;;;;;42.30;23.50;;;;;;;3.71;80.40;100854.98;109157;1254;71027;-70
2024/01/20 09:22:01;;;;;;;50.80;27.70;;;;;;;3.68;80.50;100848.27;109031;1254;138960;-70
2024/01/20 09:24:28;;;;;;;49.20;23.30;;;;;;;3.72;80.64;100855.05;108813;1256;443506;-61
2024/01/20 09:26:54;;;;;;;37.20;18.80;;;;;;;3.81;80.90;100857.96;109147;1254;74614;-61
2024/01/20 09:29:21;;;;;;;30.00;15.80;;;;;;;3.81;80.49;100859.36;106917;1258;138482;-69
2024/01/20 09:31:48;;;;;;;39.90;19.30;;;;;;;3.78;80.51;100872.90;104951;1257;71808;-60
2024/01/20 09:34:14;;;;;;;55.00;27.00;;;;;;;3.71;80.28;100874.80;104989;1257;138501;-61
2024/01/20 09:36:41;;;;;;;64.10;29.10;;;;;;;3.63;80.36;100871.97;104947;1254;61320;-69
2024/01/20 09:39:11;;;;;;;34.10;17.70;;;;;;;3.55;80.44;100871.63;104932;1256;138626;-60
2024/01/20 09:41:39;;;;;;;33.10;16.30;;;;;;;3.43;80.70;100872.77;105074;1259;65654;-70
2024/01/20 09:44:07;;;;;;;53.80;25.40;;;;;;;3.36;80.61;100870.75;104992;1257;71437;-70
2024/01/20 09:46:34;;;;;;;39.10;17.80;;;;;;;3.29;80.67;100869.54;104666;1261;138607;-60
2024/01/20 09:49:00;;;;;;;54.40;22.80;;;;;;;3.28;80.93;100867.23;104879;1256;61149;-70
2024/01/20 09:51:31;;;;;;;37.40;16.30;;;;;;;3.28;80.91;100869.48;104870;1254;139374;-60
2024/01/20 09:54:01;;;;;;;39.40;17.00;;;;;;;3.29;81.11;100871.42;108945;1256;66613;-60
2024/01/20 09:56:28;;;;;;;67.70;25.30;;;;;;;3.34;81.18;100876.89;109071;1254;72402;-60
2024/01/20 09:58:57;;;;;;;39.40;15.40;;;;;;;3.42;81.27;100884.14;108983;1254;139186;-60
2024/01/20 10:01:24;;;;;;;45.40;15.10;;;;;;;3.48;81.19;100884.09;108952;1254;60173;-68
2024/01/20 10:03:51;;;;;;;24.80;10.90;;;;;;;3.49;81.07;100885.05;107777;1256;138643;-60
2024/01/20 10:06:17;;;;;;;62.10;20.60;;;;;;;3.49;80.89;100887.27;104810;1257;66054;-69
2024/01/20 10:08:44;;;;;;;51.90;18.10;;;;;;;3.46;80.84;100894.05;104967;1259;73228;-69
2024/01/20 10:11:11;;;;;;;65.40;25.90;;;;;;;3.45;80.93;100893.67;104806;1256;138923;-69
2024/01/20 10:13:37;;;;;;;32.60;15.60;;;;;;;3.44;80.91;100897.41;104819;1257;61273;-70
2024/01/20 10:16:04;;;;;;;21.80;11.70;;;;;;;3.40;80.94;100895.98;104781;1259;140132;-70
2024/01/20 10:18:32;;;;;;;64.90;26.40;;;;;;;3.38;80.97;100896.20;109114;1254;66247;-60
2024/01/20 10:21:03;;;;;;;28.50;14.60;;;;;;;3.41;81.12;100894.15;108992;1254;139849;-62
2024/01/20 10:23:30;;;;;;;52.90;24.80;;;;;;;3.47;81.14;100896.58;109054;1259;60013;-61
2024/01/20 10:26:03;;;;;;;75.80;32.60;;;;;;;3.55;81.13;100897.47;108824;1256;61557;-61
2024/01/20 10:28:30;;;;;;;13.90;7.50;;;;;;;3.63;81.30;100899.00;108756;1254;138684;-69
2024/01/20 10:30:57;;;;;;;12.10;7.20;;;;;;;3.73;81.27;100896.21;109102;1254;65322;-70
2024/01/20 10:33:24;;;;;;;11.80;8.40;;;;;;;3.83;81.17;100899.19;108976;1256;138865;-61
2024/01/20 10:35:52;;;;;;;14.90;10.90;;;;;;;3.91;81.01;100898.27;109092;1257;59027;-61
2024/01/20 10:38:20;;;;;;;10.60;9.00;;;;;;;3.98;80.99;100895.88;105246;1257;59780;-60
2024/01/20 10:40:53;;;;;;;8.50;6.00;;;;;;;4.12;81.01;100894.37;104844;1256;137763;-70
2024/01/20 10:43:20;;;;;;;7.90;4.70;;;;;;;4.23;80.80;100898.77;109083;1256;66027;-71
2024/01/20 10:46:00;;;;;;;7.90;4.20;;;;;;;4.24;80.67;100907.34;108815;1256;137966;-62
2024/01/20 10:48:28;;;;;;;5.10;4.10;;;;;;;4.17;80.21;100901.73;108832;1256;59027;-62
2024/01/20 10:50:58;;;;;;;5.40;3.20;;;;;;;4.09;80.24;100911.57;109160;1255;59935;-71
2024/01/20 10:53:26;;;;;;;6.20;3.20;;;;;;;4.02;80.16;100910.33;108628;1254;74744;-70
2024/01/20 10:55:53;;;;;;;6.10;2.90;;;;;;;3.98;80.15;100922.77;104945;1254;66850;-61
2024/01/20 10:58:30;;;;;;;3.50;2.60;;;;;;;3.91;80.07;100926.21;108973;1255;138857;-60
2024/01/20 11:00:57;;;;;;;3.40;2.40;;;;;;;3.87;80.18;100925.52;109025;1256;59268;-60
2024/01/20 11:03:24;;;;;;;3.40;2.60;;;;;;;3.95;80.38;100922.59;108900;1254;139116;-68
2024/01/20 11:05:51;;;;;;;4.90;2.90;;;;;;;4.03;80.45;100930.89;108916;1254;76196;-61
2024/01/20 11:08:25;;;;;;;5.20;3.50;;;;;;;4.03;80.19;100934.69;109139;1255;66567;-61
2024/01/20 11:10:53;;;;;;;5.50;3.90;;;;;;;4.00;80.10;100931.08;108917;1255;137874;-61
2024/01/20 11:13:24;;;;;;;5.30;4.10;;;;;;;3.99;80.04;100932.55;108010;1254;59186;-69
2024/01/20 11:15:51;;;;;;;5.70;4.80;;;;;;;3.94;80.04;100931.60;108872;1256;137803;-61